Terminal Aerodrome Forecast
Issued by NWS Northern Indiana

Home | Current Version | Previous Version | Text Only | Print | Product List | Glossary On
Versions: 1 2 3 4 5 6 7 8 9 10 11 12 13 14 15 16 17 18
000
FTUS43 KIWX 240316 AAA
TAFFWA
TAF AMD
KFWA 240316Z 2403/2424 35009KT 6SM -RA BR OVC007
      TEMPO 2403/2406 3SM -RA BR OVC005
     FM240600 32007KT 4SM -DZ BR OVC004
     FM241300 31007KT 5SM BR OVC008
     FM241900 26006KT P6SM OVC015
     FM242300 18005KT P6SM BKN025=

USA.gov is the U.S. government's official web portal to all federal, state and local government web resources and services.